Time;durP1;ratioP1;P1;durP2;ratioP2;P2;SDS_P1;SDS_P2;PMS_P1;PMS_P2;Temp;Humidity;BMP_temperature;BMP_pressure;BME280_temperature;BME280_humidity;BME280_pressure;Samples;Min_cycle;Max_cycle;Signal;HPM_P1;HPM_P2
2023/06/17 00:02:02;;;;;;;5.43;4.93;;;;;;;;;;5031353;28;20469;-84
2023/06/17 00:04:28;;;;;;;5.60;5.10;;;;;;;;;;5031459;28;20383;-85
2023/06/17 00:06:54;;;;;;;5.95;5.45;;;;;;;;;;5031358;28;20387;-84
2023/06/17 00:09:20;;;;;;;5.40;5.00;;;;;;;;;;5031371;28;20407;-84
2023/06/17 00:11:47;;;;;;;5.47;5.07;;;;;;;;;;5031537;28;20802;-84
2023/06/17 00:14:14;;;;;;;5.68;5.18;;;;;;;;;;5031222;28;20410;-84
2023/06/17 00:16:43;;;;;;;5.18;4.78;;;;;;;;;;5031493;28;20382;-84
2023/06/17 00:19:16;;;;;;;5.57;5.18;;;;;;;;;;5031390;28;20390;-84
2023/06/17 00:21:52;;;;;;;5.85;5.35;;;;;;;;;;5031655;28;20375;-84
2023/06/17 00:24:18;;;;;;;6.03;5.50;;;;;;;;;;5031319;28;20496;-84
2023/06/17 00:26:44;;;;;;;5.25;4.75;;;;;;;;;;5031136;28;20390;-84
2023/06/17 00:29:11;;;;;;;6.10;5.50;;;;;;;;;;5031317;28;20868;-84
2023/06/17 00:31:37;;;;;;;5.10;4.70;;;;;;;;;;5030971;28;20379;-84
2023/06/17 00:34:03;;;;;;;5.43;4.90;;;;;;;;;;5031566;28;20410;-84
2023/06/17 00:36:29;;;;;;;5.40;4.90;;;;;;;;;;5039946;28;20388;-84
2023/06/17 00:38:55;;;;;;;5.22;4.53;;;;;;;;;;5041798;28;20375;-84
2023/06/17 00:41:21;;;;;;;5.22;4.80;;;;;;;;;;5031009;28;20379;-84
2023/06/17 00:43:47;;;;;;;5.20;4.50;;;;;;;;;;5035391;28;20386;-84
2023/06/17 00:46:20;;;;;;;5.40;5.00;;;;;;;;;;5031268;28;20383;-84
2023/06/17 00:48:46;;;;;;;5.57;5.07;;;;;;;;;;5031090;28;20387;-84
2023/06/17 00:51:12;;;;;;;5.20;4.80;;;;;;;;;;5030934;28;20386;-84
2023/06/17 00:53:38;;;;;;;5.40;5.00;;;;;;;;;;5030905;28;20411;-84
2023/06/17 00:56:04;;;;;;;5.65;5.25;;;;;;;;;;5031126;28;20385;-84
2023/06/17 00:58:30;;;;;;;5.97;5.57;;;;;;;;;;5030898;28;20830;-84
2023/06/17 01:00:56;;;;;;;5.40;5.00;;;;;;;;;;5030922;28;20474;-84
2023/06/17 01:03:24;;;;;;;5.70;5.20;;;;;;;;;;5031937;28;20465;-84
2023/06/17 01:05:52;;;;;;;5.80;5.30;;;;;;;;;;5034881;28;20379;-84
2023/06/17 01:08:30;;;;;;;5.32;4.93;;;;;;;;;;5034378;28;20480;-84
2023/06/17 01:11:08;;;;;;;5.00;4.60;;;;;;;;;;5034639;28;20389;-83
2023/06/17 01:13:35;;;;;;;5.60;5.10;;;;;;;;;;5033211;28;20883;-84
2023/06/17 01:16:02;;;;;;;4.95;4.55;;;;;;;;;;5034695;28;20375;-84
2023/06/17 01:18:29;;;;;;;5.45;5.00;;;;;;;;;;5034472;28;20449;-84
2023/06/17 01:20:55;;;;;;;5.35;4.85;;;;;;;;;;5034223;28;20748;-84
2023/06/17 01:23:23;;;;;;;5.70;5.20;;;;;;;;;;5034402;28;20391;-84
2023/06/17 01:25:49;;;;;;;5.47;5.00;;;;;;;;;;5034485;28;20383;-84
2023/06/17 01:28:16;;;;;;;5.32;4.82;;;;;;;;;;5034032;28;20444;-84
2023/06/17 01:30:43;;;;;;;5.80;5.20;;;;;;;;;;5034328;28;20390;-84
2023/06/17 01:33:10;;;;;;;4.63;4.28;;;;;;;;;;5034178;28;20453;-83
2023/06/17 01:35:38;;;;;;;5.30;4.82;;;;;;;;;;5036925;28;20462;-84
2023/06/17 01:38:10;;;;;;;5.32;4.90;;;;;;;;;;5049768;28;20462;-84
2023/06/17 01:40:38;;;;;;;5.60;5.20;;;;;;;;;;5037129;28;20887;-84
2023/06/17 01:43:05;;;;;;;5.20;4.80;;;;;;;;;;5044233;28;20398;-84
2023/06/17 01:45:31;;;;;;;5.55;5.05;;;;;;;;;;5049065;28;20374;-84
2023/06/17 01:47:57;;;;;;;5.05;4.65;;;;;;;;;;5034110;28;20484;-84
2023/06/17 01:50:23;;;;;;;5.55;5.15;;;;;;;;;;5033934;28;20821;-84
2023/06/17 01:52:49;;;;;;;5.22;4.80;;;;;;;;;;5033981;28;20473;-84
2023/06/17 01:55:17;;;;;;;5.95;5.45;;;;;;;;;;5033875;28;20446;-83
2023/06/17 01:57:43;;;;;;;5.80;5.30;;;;;;;;;;5032172;28;20485;-84
2023/06/17 02:00:12;;;;;;;5.47;5.07;;;;;;;;;;5032963;28;20482;-84
2023/06/17 02:02:38;;;;;;;5.95;5.35;;;;;;;;;;5033799;28;20386;-84
2023/06/17 02:05:04;;;;;;;5.30;4.90;;;;;;;;;;5033738;28;20927;-84
2023/06/17 02:07:30;;;;;;;5.43;5.03;;;;;;;;;;5033402;28;20414;-84
2023/06/17 02:09:57;;;;;;;5.45;4.95;;;;;;;;;;5033660;28;20383;-84
2023/06/17 02:12:25;;;;;;;5.40;5.00;;;;;;;;;;5033644;28;20458;-84
2023/06/17 02:14:51;;;;;;;5.22;4.82;;;;;;;;;;5032344;28;20403;-84
2023/06/17 02:17:18;;;;;;;5.35;4.85;;;;;;;;;;5033413;28;20883;-84
2023/06/17 02:19:44;;;;;;;6.00;5.40;;;;;;;;;;5033399;28;20375;-83
2023/06/17 02:22:10;;;;;;;5.70;5.20;;;;;;;;;;5033453;28;20746;-84
2023/06/17 02:24:36;;;;;;;5.47;5.07;;;;;;;;;;5033406;28;20383;-84
2023/06/17 02:27:02;;;;;;;6.25;5.00;;;;;;;;;;5033019;28;20383;-84
2023/06/17 02:29:28;;;;;;;8.85;5.30;;;;;;;;;;5033171;28;20440;-84
2023/06/17 02:31:54;;;;;;;7.77;5.27;;;;;;;;;;5033220;28;20444;-84
2023/06/17 02:34:20;;;;;;;5.55;5.05;;;;;;;;;;5033183;28;20407;-84
2023/06/17 02:36:46;;;;;;;5.72;4.82;;;;;;;;;;5032976;28;20793;-83
2023/06/17 02:39:12;;;;;;;5.78;5.18;;;;;;;;;;5033036;28;20406;-84
2023/06/17 02:41:38;;;;;;;7.30;5.37;;;;;;;;;;5033417;28;20877;-84
2023/06/17 02:44:04;;;;;;;5.78;4.95;;;;;;;;;;5041731;28;20406;-84
2023/06/17 02:46:30;;;;;;;5.93;5.20;;;;;;;;;;5044078;28;20385;-84
2023/06/17 02:48:56;;;;;;;5.65;5.18;;;;;;;;;;5037570;28;20757;-84
2023/06/17 02:51:23;;;;;;;5.50;5.03;;;;;;;;;;5049176;28;20447;-83
2023/06/17 02:53:49;;;;;;;5.45;5.03;;;;;;;;;;5052240;28;20445;-84
2023/06/17 02:56:15;;;;;;;5.78;5.38;;;;;;;;;;5052603;28;20381;-84
2023/06/17 02:58:43;;;;;;;6.15;5.55;;;;;;;;;;5052486;28;20374;-84
2023/06/17 03:01:11;;;;;;;5.90;5.50;;;;;;;;;;5052600;28;20370;-84
2023/06/17 03:03:37;;;;;;;5.68;5.28;;;;;;;;;;5052600;28;20381;-83
2023/06/17 03:06:05;;;;;;;5.80;5.27;;;;;;;;;;5052428;28;20452;-84
2023/06/17 03:08:35;;;;;;;6.33;5.77;;;;;;;;;;5052133;28;20588;-84
2023/06/17 03:11:01;;;;;;;5.35;4.95;;;;;;;;;;5044277;28;20391;-84
2023/06/17 03:13:28;;;;;;;5.68;5.18;;;;;;;;;;5032379;28;20407;-84
2023/06/17 03:15:54;;;;;;;5.50;5.10;;;;;;;;;;5032378;28;20379;-84
2023/06/17 03:18:21;;;;;;;5.40;5.00;;;;;;;;;;5032234;28;20371;-84
2023/06/17 03:20:47;;;;;;;5.55;5.10;;;;;;;;;;5032370;28;20382;-83
2023/06/17 03:23:15;;;;;;;5.60;5.10;;;;;;;;;;5032132;28;20470;-83
2023/06/17 03:25:41;;;;;;;6.03;5.53;;;;;;;;;;5032087;28;20403;-83
2023/06/17 03:28:07;;;;;;;5.30;4.90;;;;;;;;;;5031958;28;20387;-84
2023/06/17 03:30:33;;;;;;;5.50;5.10;;;;;;;;;;5032176;28;20441;-84
2023/06/17 03:33:00;;;;;;;5.75;5.25;;;;;;;;;;5032201;28;20756;-83
2023/06/17 03:35:26;;;;;;;5.70;5.20;;;;;;;;;;5031977;28;20853;-83
2023/06/17 03:37:52;;;;;;;5.90;5.35;;;;;;;;;;5031758;28;20419;-84
2023/06/17 03:40:18;;;;;;;5.47;5.07;;;;;;;;;;5030998;28;20387;-83
2023/06/17 03:42:44;;;;;;;5.60;5.15;;;;;;;;;;5031821;28;20386;-84
2023/06/17 03:45:10;;;;;;;5.80;5.30;;;;;;;;;;5031762;28;20418;-84
2023/06/17 03:47:36;;;;;;;5.93;5.38;;;;;;;;;;5031700;28;20390;-83
2023/06/17 03:50:02;;;;;;;6.22;5.72;;;;;;;;;;5031818;28;20387;-84
2023/06/17 03:52:28;;;;;;;6.30;5.80;;;;;;;;;;5032123;28;20391;-84
2023/06/17 03:54:55;;;;;;;5.80;5.40;;;;;;;;;;5036167;28;20427;-84
2023/06/17 03:57:21;;;;;;;5.90;5.40;;;;;;;;;;5035586;28;20381;-84
2023/06/17 03:59:47;;;;;;;5.30;4.90;;;;;;;;;;5046576;28;20382;-84
2023/06/17 04:02:13;;;;;;;5.57;5.07;;;;;;;;;;5037543;28;20382;-84
2023/06/17 04:04:39;;;;;;;6.15;5.65;;;;;;;;;;5031507;28;20387;-83
2023/06/17 04:07:06;;;;;;;5.57;5.18;;;;;;;;;;5031274;28;20399;-84
2023/06/17 04:09:32;;;;;;;6.03;5.43;;;;;;;;;;5031550;28;20880;-84
2023/06/17 04:11:57;;;;;;;6.05;5.50;;;;;;;;;;5031416;28;20426;-84
2023/06/17 04:14:24;;;;;;;5.80;5.30;;;;;;;;;;5031296;28;20437;-83
2023/06/17 04:16:50;;;;;;;6.10;5.60;;;;;;;;;;5031441;28;20387;-83
2023/06/17 04:19:17;;;;;;;5.82;5.32;;;;;;;;;;5031441;28;20390;-84
2023/06/17 04:21:43;;;;;;;6.57;5.97;;;;;;;;;;5031492;28;20380;-83
2023/06/17 04:24:09;;;;;;;5.82;5.43;;;;;;;;;;5031242;28;20386;-83
2023/06/17 04:26:35;;;;;;;6.00;5.60;;;;;;;;;;5031394;28;20895;-83
2023/06/17 04:29:01;;;;;;;6.00;5.50;;;;;;;;;;5031209;28;20457;-83
2023/06/17 04:31:27;;;;;;;6.00;5.50;;;;;;;;;;5031158;28;20876;-83
2023/06/17 04:33:56;;;;;;;6.18;5.68;;;;;;;;;;5030653;28;20784;-83
2023/06/17 04:36:27;;;;;;;6.07;5.57;;;;;;;;;;5031046;28;20383;-84
2023/06/17 04:38:53;;;;;;;5.53;5.03;;;;;;;;;;5033285;28;20741;-83
2023/06/17 04:41:20;;;;;;;6.70;6.10;;;;;;;;;;5035258;28;20383;-83
2023/06/17 04:43:48;;;;;;;6.38;5.78;;;;;;;;;;5035309;28;20383;-83
2023/06/17 04:46:16;;;;;;;6.60;6.10;;;;;;;;;;5035244;28;20466;-83
2023/06/17 04:48:43;;;;;;;6.10;5.60;;;;;;;;;;5035106;28;20445;-84
2023/06/17 04:51:10;;;;;;;6.35;5.70;;;;;;;;;;5035017;28;20907;-84
2023/06/17 04:53:39;;;;;;;6.10;5.60;;;;;;;;;;5034880;28;20849;-83
2023/06/17 04:56:06;;;;;;;5.75;5.25;;;;;;;;;;5035047;28;20417;-83
2023/06/17 04:58:33;;;;;;;5.90;5.40;;;;;;;;;;5035602;28;20743;-83
2023/06/17 05:00:59;;;;;;;5.78;5.38;;;;;;;;;;5049424;28;20381;-83
2023/06/17 05:03:25;;;;;;;5.97;5.47;;;;;;;;;;5041441;28;20784;-84
2023/06/17 05:05:53;;;;;;;5.70;5.20;;;;;;;;;;5048642;28;20410;-83
2023/06/17 05:08:19;;;;;;;6.50;5.90;;;;;;;;;;5042586;28;20401;-84
2023/06/17 05:10:45;;;;;;;6.13;5.70;;;;;;;;;;5034539;28;20375;-83
2023/06/17 05:13:11;;;;;;;6.75;6.00;;;;;;;;;;5034539;28;20375;-84
2023/06/17 05:15:37;;;;;;;5.90;5.40;;;;;;;;;;5034679;28;20375;-84
2023/06/17 05:18:03;;;;;;;6.60;6.10;;;;;;;;;;5034419;28;20432;-83
2023/06/17 05:20:29;;;;;;;6.78;6.18;;;;;;;;;;5034425;28;20403;-84
2023/06/17 05:22:55;;;;;;;6.50;5.90;;;;;;;;;;5034610;28;20429;-83
2023/06/17 05:25:21;;;;;;;6.43;5.90;;;;;;;;;;5034542;28;20811;-84
2023/06/17 05:27:48;;;;;;;6.70;6.00;;;;;;;;;;5034314;28;20386;-84
2023/06/17 05:30:14;;;;;;;6.50;5.65;;;;;;;;;;5034439;28;20980;-83
2023/06/17 05:32:40;;;;;;;6.22;5.75;;;;;;;;;;5034576;28;20383;-83
2023/06/17 05:35:08;;;;;;;5.88;5.45;;;;;;;;;;5033498;28;21473;-84
2023/06/17 05:37:34;;;;;;;6.05;5.55;;;;;;;;;;5034069;28;20382;-84
2023/06/17 05:40:00;;;;;;;6.25;5.63;;;;;;;;;;5034143;28;20864;-84
2023/06/17 05:42:26;;;;;;;5.63;5.20;;;;;;;;;;5033887;28;20419;-84
2023/06/17 05:44:52;;;;;;;5.50;5.00;;;;;;;;;;5034472;28;20379;-84
2023/06/17 05:47:18;;;;;;;5.80;5.25;;;;;;;;;;5031661;28;20929;-84
2023/06/17 05:49:44;;;;;;;5.50;5.03;;;;;;;;;;5033770;28;20391;-83
2023/06/17 05:52:10;;;;;;;6.15;5.65;;;;;;;;;;5034092;28;20561;-83
2023/06/17 05:54:38;;;;;;;6.80;6.30;;;;;;;;;;5033958;28;20446;-84
2023/06/17 05:57:05;;;;;;;5.80;5.30;;;;;;;;;;5033770;28;20429;-84
2023/06/17 05:59:31;;;;;;;6.07;5.55;;;;;;;;;;5033734;28;20861;-84
2023/06/17 06:01:57;;;;;;;5.65;5.20;;;;;;;;;;5047677;28;20913;-83
2023/06/17 06:04:23;;;;;;;5.73;5.27;;;;;;;;;;5036177;28;20780;-84
2023/06/17 06:06:49;;;;;;;6.43;5.80;;;;;;;;;;5042858;28;20472;-84
2023/06/17 06:09:15;;;;;;;6.22;5.63;;;;;;;;;;5040100;28;20419;-84
2023/06/17 06:11:41;;;;;;;6.00;5.50;;;;;;;;;;5050807;28;20389;-84
2023/06/17 06:14:07;;;;;;;6.30;5.60;;;;;;;;;;5053440;28;20405;-84
2023/06/17 06:16:33;;;;;;;7.32;6.25;;;;;;;;;;5053371;28;20866;-83
2023/06/17 06:18:59;;;;;;;6.05;5.53;;;;;;;;;;5051957;28;20420;-84
2023/06/17 06:21:25;;;;;;;5.57;5.10;;;;;;;;;;5053359;28;20378;-83
2023/06/17 06:23:51;;;;;;;6.45;5.88;;;;;;;;;;5053314;28;20385;-83
2023/06/17 06:26:17;;;;;;;6.30;5.80;;;;;;;;;;5053224;28;20468;-84
2023/06/17 06:28:43;;;;;;;6.57;5.97;;;;;;;;;;5053040;28;20377;-83
2023/06/17 06:31:10;;;;;;;6.55;5.97;;;;;;;;;;5039185;28;20465;-84
2023/06/17 06:33:36;;;;;;;5.40;4.90;;;;;;;;;;5033215;28;20903;-83
2023/06/17 06:36:02;;;;;;;6.45;5.80;;;;;;;;;;5032620;28;20409;-84
2023/06/17 06:38:28;;;;;;;5.57;5.13;;;;;;;;;;5033052;28;20383;-84
2023/06/17 06:40:54;;;;;;;5.43;4.93;;;;;;;;;;5033097;28;20453;-84
2023/06/17 06:43:20;;;;;;;5.70;5.13;;;;;;;;;;5033040;28;20422;-84
2023/06/17 06:45:46;;;;;;;7.07;5.88;;;;;;;;;;5032812;28;20845;-84
2023/06/17 06:48:13;;;;;;;6.57;5.88;;;;;;;;;;5032882;28;20379;-84
2023/06/17 06:50:39;;;;;;;6.53;5.93;;;;;;;;;;5032956;28;20415;-84
2023/06/17 06:53:05;;;;;;;6.95;6.35;;;;;;;;;;5032797;28;20410;-84
2023/06/17 06:55:31;;;;;;;7.25;6.53;;;;;;;;;;5032599;28;20407;-84
2023/06/17 06:57:57;;;;;;;6.05;5.50;;;;;;;;;;5032703;28;20375;-83
2023/06/17 07:00:23;;;;;;;6.22;5.63;;;;;;;;;;5031512;28;20865;-84
2023/06/17 07:02:49;;;;;;;5.43;4.93;;;;;;;;;;5032597;28;20483;-84
2023/06/17 07:05:15;;;;;;;6.20;5.60;;;;;;;;;;5038058;28;20391;-84
2023/06/17 07:07:41;;;;;;;7.32;6.25;;;;;;;;;;5040723;28;20424;-84
2023/06/17 07:10:07;;;;;;;6.53;5.78;;;;;;;;;;5040217;28;20404;-84
2023/06/17 07:12:33;;;;;;;6.57;5.30;;;;;;;;;;5039540;28;20882;-84
2023/06/17 07:14:59;;;;;;;6.13;5.63;;;;;;;;;;5052134;28;20410;-84
2023/06/17 07:17:25;;;;;;;7.82;5.53;;;;;;;;;;5036321;28;20383;-84
2023/06/17 07:19:51;;;;;;;5.85;5.45;;;;;;;;;;5032439;28;20371;-84
2023/06/17 07:22:17;;;;;;;7.97;5.60;;;;;;;;;;5032255;28;20386;-84
2023/06/17 07:24:43;;;;;;;6.25;5.70;;;;;;;;;;5032066;28;20379;-84
2023/06/17 07:27:09;;;;;;;6.82;6.22;;;;;;;;;;5032149;28;20853;-83
2023/06/17 07:29:35;;;;;;;6.93;6.32;;;;;;;;;;5032196;28;20375;-84
2023/06/17 07:32:01;;;;;;;7.05;6.45;;;;;;;;;;5031989;28;20383;-85
2023/06/17 07:34:27;;;;;;;7.82;7.03;;;;;;;;;;5031863;28;20756;-84
2023/06/17 07:36:53;;;;;;;11.57;8.45;;;;;;;;;;5030227;28;20581;-84
2023/06/17 07:39:20;;;;;;;8.47;7.67;;;;;;;;;;5032070;28;20397;-85
2023/06/17 07:41:46;;;;;;;9.43;8.32;;;;;;;;;;5031899;28;20383;-84
2023/06/17 07:44:12;;;;;;;11.20;7.95;;;;;;;;;;5031455;28;20445;-84
2023/06/17 07:46:38;;;;;;;8.00;7.30;;;;;;;;;;5031762;28;20933;-85
2023/06/17 07:49:04;;;;;;;7.53;6.78;;;;;;;;;;5031890;28;20398;-84
2023/06/17 07:51:30;;;;;;;7.93;7.22;;;;;;;;;;5031692;28;20860;-83
2023/06/17 07:53:56;;;;;;;7.50;6.80;;;;;;;;;;5031587;28;20478;-84
2023/06/17 07:56:22;;;;;;;9.03;7.53;;;;;;;;;;5031730;28;20541;-84
2023/06/17 07:58:48;;;;;;;7.68;6.68;;;;;;;;;;5031517;28;20935;-84
2023/06/17 08:01:15;;;;;;;9.63;8.15;;;;;;;;;;5031553;28;20501;-84
2023/06/17 08:03:41;;;;;;;8.43;7.63;;;;;;;;;;5031520;28;20379;-84
2023/06/17 08:06:08;;;;;;;8.30;7.20;;;;;;;;;;5031608;28;20876;-84
2023/06/17 08:08:34;;;;;;;7.90;7.20;;;;;;;;;;5041226;28;20921;-84
2023/06/17 08:11:00;;;;;;;7.68;6.97;;;;;;;;;;5038079;28;20410;-84
2023/06/17 08:13:26;;;;;;;7.43;6.72;;;;;;;;;;5038665;28;20472;-84
2023/06/17 08:15:52;;;;;;;6.72;6.07;;;;;;;;;;5042034;28;20373;-85
2023/06/17 08:18:18;;;;;;;6.75;6.13;;;;;;;;;;5051324;28;20863;-84
2023/06/17 08:20:44;;;;;;;8.00;7.20;;;;;;;;;;5051212;28;20429;-84
2023/06/17 08:23:10;;;;;;;8.17;6.53;;;;;;;;;;5051218;28;20385;-84
2023/06/17 08:25:36;;;;;;;7.93;7.17;;;;;;;;;;5050227;28;20389;-84
2023/06/17 08:28:02;;;;;;;9.90;8.50;;;;;;;;;;5051123;28;20409;-84
2023/06/17 08:30:28;;;;;;;14.35;8.93;;;;;;;;;;5047382;28;20887;-84
2023/06/17 08:32:54;;;;;;;8.85;7.88;;;;;;;;;;5030709;28;20387;-84
2023/06/17 08:35:20;;;;;;;7.78;7.07;;;;;;;;;;5031162;28;20847;-84
2023/06/17 08:37:47;;;;;;;8.68;7.05;;;;;;;;;;5031182;28;20398;-84
2023/06/17 08:40:14;;;;;;;8.57;6.90;;;;;;;;;;5031091;28;20447;-84
2023/06/17 08:42:40;;;;;;;7.95;7.20;;;;;;;;;;5031071;28;20864;-84
2023/06/17 08:45:07;;;;;;;9.45;7.07;;;;;;;;;;5031200;28;20395;-84
2023/06/17 08:47:34;;;;;;;8.52;6.80;;;;;;;;;;5031343;28;20737;-84
2023/06/17 08:50:01;;;;;;;11.57;9.20;;;;;;;;;;5030886;28;20375;-84
2023/06/17 08:52:27;;;;;;;7.18;6.47;;;;;;;;;;5031095;28;20391;-84
2023/06/17 08:54:54;;;;;;;7.18;6.55;;;;;;;;;;5030960;28;20407;-84
2023/06/17 08:57:20;;;;;;;9.40;6.75;;;;;;;;;;5030875;28;20376;-84
2023/06/17 08:59:46;;;;;;;8.45;7.38;;;;;;;;;;5030875;28;20428;-84
2023/06/17 09:02:14;;;;;;;9.93;6.97;;;;;;;;;;5030971;28;20386;-84
2023/06/17 09:04:40;;;;;;;7.80;7.00;;;;;;;;;;5030994;28;20512;-84
2023/06/17 09:07:09;;;;;;;6.50;6.00;;;;;;;;;;5030039;28;20484;-84
2023/06/17 09:09:36;;;;;;;7.07;6.20;;;;;;;;;;5031448;28;20510;-84
2023/06/17 09:12:06;;;;;;;7.53;6.53;;;;;;;;;;5045934;28;20519;-84
2023/06/17 09:14:32;;;;;;;7.65;6.85;;;;;;;;;;5038848;28;20409;-84
2023/06/17 09:17:00;;;;;;;8.10;5.90;;;;;;;;;;5030013;28;20377;-84
2023/06/17 09:19:29;;;;;;;6.33;5.80;;;;;;;;;;5048643;28;20802;-84
2023/06/17 09:21:56;;;;;;;5.60;5.10;;;;;;;;;;5050697;28;20370;-84
2023/06/17 09:24:28;;;;;;;5.85;5.35;;;;;;;;;;5051603;28;20858;-84
2023/06/17 09:26:54;;;;;;;6.10;5.60;;;;;;;;;;5054304;28;20396;-84
2023/06/17 09:29:22;;;;;;;5.45;5.00;;;;;;;;;;5054336;28;20412;-84
2023/06/17 09:31:48;;;;;;;5.57;4.97;;;;;;;;;;5054452;28;20858;-85
2023/06/17 09:34:14;;;;;;;5.30;4.90;;;;;;;;;;5054259;28;20507;-85
2023/06/17 09:36:40;;;;;;;6.10;5.05;;;;;;;;;;5054136;28;20376;-84
2023/06/17 09:39:07;;;;;;;5.50;4.93;;;;;;;;;;5039727;28;20394;-84
2023/06/17 09:41:37;;;;;;;4.60;4.30;;;;;;;;;;5034213;28;20375;-84
2023/06/17 09:44:03;;;;;;;4.30;4.00;;;;;;;;;;5034121;28;20383;-85
2023/06/17 09:46:29;;;;;;;5.20;4.72;;;;;;;;;;5033518;28;20395;-84
2023/06/17 09:48:57;;;;;;;4.97;4.40;;;;;;;;;;5034111;28;20383;-84
2023/06/17 09:51:23;;;;;;;4.55;4.25;;;;;;;;;;5034015;28;20442;-84
2023/06/17 09:53:51;;;;;;;4.82;4.43;;;;;;;;;;5033934;28;20414;-84
2023/06/17 09:56:18;;;;;;;4.80;4.40;;;;;;;;;;5034141;28;20387;-84
2023/06/17 09:58:44;;;;;;;4.28;3.97;;;;;;;;;;5033779;28;20387;-84
2023/06/17 10:01:11;;;;;;;6.10;4.45;;;;;;;;;;5033877;28;20390;-84
2023/06/17 10:03:39;;;;;;;4.80;4.40;;;;;;;;;;5033717;28;20389;-84
2023/06/17 10:06:09;;;;;;;4.97;4.43;;;;;;;;;;5033810;28;20371;-83
2023/06/17 10:08:41;;;;;;;5.30;4.60;;;;;;;;;;5032983;28;20406;-84
2023/06/17 10:11:07;;;;;;;5.10;4.70;;;;;;;;;;5033624;28;20395;-84
2023/06/17 10:13:36;;;;;;;5.40;4.20;;;;;;;;;;5033324;28;20798;-85
2023/06/17 10:16:03;;;;;;;4.72;4.38;;;;;;;;;;5034191;28;20462;-85
2023/06/17 10:18:31;;;;;;;4.75;4.30;;;;;;;;;;5032905;28;20388;-84
2023/06/17 10:20:57;;;;;;;5.20;4.70;;;;;;;;;;5037524;28;20906;-84
2023/06/17 10:23:24;;;;;;;4.63;4.32;;;;;;;;;;5052330;28;20382;-85
2023/06/17 10:25:50;;;;;;;4.43;4.03;;;;;;;;;;5033006;28;20387;-84
2023/06/17 10:28:16;;;;;;;4.67;4.27;;;;;;;;;;5032886;28;20738;-84
2023/06/17 10:30:50;;;;;;;4.60;4.20;;;;;;;;;;5033258;28;20379;-85
2023/06/17 10:33:16;;;;;;;4.45;4.05;;;;;;;;;;5033132;28;20375;-85
2023/06/17 10:35:44;;;;;;;4.60;4.15;;;;;;;;;;5032067;28;20494;-84
2023/06/17 10:38:10;;;;;;;4.57;4.20;;;;;;;;;;5033045;28;20410;-84
2023/06/17 10:40:40;;;;;;;4.82;4.32;;;;;;;;;;5033060;28;20371;-83
2023/06/17 10:43:06;;;;;;;4.93;4.45;;;;;;;;;;5032958;28;20479;-85
2023/06/17 10:45:33;;;;;;;4.27;3.87;;;;;;;;;;5032831;28;20413;-84
2023/06/17 10:48:18;;;;;;;4.40;4.00;;;;;;;;;;5032941;28;20387;-85
2023/06/17 10:50:47;;;;;;;4.55;4.10;;;;;;;;;;5032709;28;20378;-83
2023/06/17 10:53:16;;;;;;;6.13;4.07;;;;;;;;;;5032864;28;20387;-84
2023/06/17 10:55:42;;;;;;;4.18;3.78;;;;;;;;;;5032633;28;20403;-84
2023/06/17 10:58:08;;;;;;;4.35;3.95;;;;;;;;;;5032678;28;20394;-84
2023/06/17 11:00:34;;;;;;;4.32;3.90;;;;;;;;;;5032621;28;20387;-84
2023/06/17 11:03:01;;;;;;;4.93;3.70;;;;;;;;;;5032590;28;20379;-83
2023/06/17 11:05:27;;;;;;;5.63;4.17;;;;;;;;;;5032647;28;20473;-84
2023/06/17 11:07:53;;;;;;;4.45;4.03;;;;;;;;;;5032258;28;20500;-84
2023/06/17 11:10:24;;;;;;;4.97;3.90;;;;;;;;;;5031950;28;20402;-84
2023/06/17 11:12:50;;;;;;;4.28;3.97;;;;;;;;;;5032361;28;20406;-84
2023/06/17 11:15:16;;;;;;;4.60;4.20;;;;;;;;;;5032398;28;20406;-84
2023/06/17 11:17:42;;;;;;;5.32;4.20;;;;;;;;;;5032322;28;20370;-84
2023/06/17 11:20:09;;;;;;;4.32;3.92;;;;;;;;;;5036738;28;20396;-83
2023/06/17 11:22:38;;;;;;;4.53;4.23;;;;;;;;;;5043748;28;20462;-83
2023/06/17 11:25:05;;;;;;;4.53;4.13;;;;;;;;;;5044583;28;20420;-83
2023/06/17 11:27:31;;;;;;;4.60;4.17;;;;;;;;;;5041510;28;20405;-83
2023/06/17 11:29:57;;;;;;;5.10;3.90;;;;;;;;;;5040815;28;20383;-83
2023/06/17 11:32:23;;;;;;;4.60;4.10;;;;;;;;;;5032127;28;20860;-83
2023/06/17 11:34:53;;;;;;;6.32;4.38;;;;;;;;;;5031912;28;20465;-83
2023/06/17 11:37:19;;;;;;;4.38;3.97;;;;;;;;;;5031381;28;20383;-84
2023/06/17 11:39:45;;;;;;;6.27;4.17;;;;;;;;;;5031857;28;20860;-83
2023/06/17 11:42:11;;;;;;;4.18;3.88;;;;;;;;;;5031899;28;20382;-83
2023/06/17 11:44:37;;;;;;;4.28;3.95;;;;;;;;;;5031927;28;20378;-83
2023/06/17 11:47:05;;;;;;;4.70;4.10;;;;;;;;;;5031354;28;20480;-83
2023/06/17 11:49:31;;;;;;;4.25;3.85;;;;;;;;;;5031582;28;20390;-83
2023/06/17 11:52:02;;;;;;;4.57;3.90;;;;;;;;;;5031691;28;20386;-83
2023/06/17 11:54:29;;;;;;;6.13;5.10;;;;;;;;;;5031693;28;20410;-82
2023/06/17 11:56:55;;;;;;;4.97;4.20;;;;;;;;;;5031515;28;20465;-83
2023/06/17 11:59:21;;;;;;;4.90;4.10;;;;;;;;;;5031755;28;20853;-83
2023/06/17 12:01:47;;;;;;;5.97;4.40;;;;;;;;;;5031218;28;20449;-83
2023/06/17 12:04:14;;;;;;;4.38;3.97;;;;;;;;;;5031598;28;20434;-83
2023/06/17 12:06:43;;;;;;;4.60;4.10;;;;;;;;;;5031348;28;20456;-83
2023/06/17 12:09:10;;;;;;;5.47;4.28;;;;;;;;;;5031367;28;20506;-83
2023/06/17 12:11:39;;;;;;;4.03;3.72;;;;;;;;;;5031352;28;20387;-83
2023/06/17 12:14:09;;;;;;;4.18;3.53;;;;;;;;;;5031312;28;20437;-83
2023/06/17 12:16:35;;;;;;;4.50;3.92;;;;;;;;;;5031276;28;20393;-83
2023/06/17 12:19:04;;;;;;;4.10;3.80;;;;;;;;;;5029984;28;20380;-83
2023/06/17 12:21:30;;;;;;;3.80;3.50;;;;;;;;;;5031270;28;20517;-83
2023/06/17 12:23:56;;;;;;;4.20;3.60;;;;;;;;;;5033103;28;20418;-82
2023/06/17 12:26:23;;;;;;;4.57;3.95;;;;;;;;;;5040401;28;20916;-83
2023/06/17 12:28:50;;;;;;;4.40;4.10;;;;;;;;;;5039889;28;20386;-82
2023/06/17 12:31:17;;;;;;;5.00;3.97;;;;;;;;;;5044175;28;20378;-83
2023/06/17 12:33:43;;;;;;;5.25;4.10;;;;;;;;;;5037597;28;20395;-84
2023/06/17 12:36:09;;;;;;;4.35;4.00;;;;;;;;;;5037381;28;20718;-84
2023/06/17 12:38:37;;;;;;;5.32;4.45;;;;;;;;;;5031155;28;20387;-83
2023/06/17 12:41:04;;;;;;;4.07;3.70;;;;;;;;;;5031111;28;20859;-84
2023/06/17 12:43:30;;;;;;;4.95;4.55;;;;;;;;;;5031066;28;20382;-83
2023/06/17 12:45:58;;;;;;;4.57;4.18;;;;;;;;;;5031000;28;20380;-83
2023/06/17 12:48:24;;;;;;;4.07;3.70;;;;;;;;;;5030972;28;21174;-83
2023/06/17 12:50:50;;;;;;;4.13;3.83;;;;;;;;;;5031427;28;20772;-84
2023/06/17 12:53:16;;;;;;;4.50;4.10;;;;;;;;;;5029744;28;20441;-83
2023/06/17 12:55:42;;;;;;;4.80;3.90;;;;;;;;;;5030969;28;20405;-83
2023/06/17 12:58:10;;;;;;;4.35;4.00;;;;;;;;;;5030834;28;20466;-84
2023/06/17 13:00:36;;;;;;;4.50;4.03;;;;;;;;;;5033959;28;20399;-84
2023/06/17 13:03:02;;;;;;;4.72;4.15;;;;;;;;;;5034792;28;20379;-84
2023/06/17 13:05:28;;;;;;;4.13;3.80;;;;;;;;;;5034929;28;20382;-83
2023/06/17 13:07:54;;;;;;;4.10;3.80;;;;;;;;;;5034066;28;20898;-84
2023/06/17 13:10:21;;;;;;;4.32;3.92;;;;;;;;;;5034810;28;20387;-84
2023/06/17 13:12:47;;;;;;;4.35;3.95;;;;;;;;;;5034718;28;20387;-82
2023/06/17 13:15:13;;;;;;;4.30;4.00;;;;;;;;;;5034825;28;20486;-83
2023/06/17 13:17:39;;;;;;;5.90;3.88;;;;;;;;;;5034414;28;20383;-83
2023/06/17 13:20:05;;;;;;;4.72;4.07;;;;;;;;;;5034711;28;20389;-83
2023/06/17 13:22:33;;;;;;;4.28;3.75;;;;;;;;;;5034420;28;20477;-84
2023/06/17 13:25:00;;;;;;;3.92;3.63;;;;;;;;;;5034521;28;20950;-83
2023/06/17 13:27:26;;;;;;;4.90;4.10;;;;;;;;;;5034451;28;20383;-83
2023/06/17 13:29:52;;;;;;;3.97;3.67;;;;;;;;;;5040981;28;20377;-84
2023/06/17 13:32:18;;;;;;;4.50;4.20;;;;;;;;;;5051877;28;20378;-84
2023/06/17 13:34:44;;;;;;;5.35;4.18;;;;;;;;;;5039027;28;20441;-84
2023/06/17 13:37:10;;;;;;;4.60;4.20;;;;;;;;;;5038318;28;20441;-83
2023/06/17 13:39:36;;;;;;;4.60;4.20;;;;;;;;;;5035160;28;20379;-83
2023/06/17 13:42:03;;;;;;;4.43;4.13;;;;;;;;;;5034413;28;20784;-83
2023/06/17 13:44:29;;;;;;;4.22;3.92;;;;;;;;;;5033780;28;20383;-84
2023/06/17 13:46:56;;;;;;;4.43;4.03;;;;;;;;;;5032651;28;20444;-84
2023/06/17 13:49:22;;;;;;;4.70;4.30;;;;;;;;;;5033960;28;20387;-84
2023/06/17 13:51:48;;;;;;;4.95;4.55;;;;;;;;;;5034040;28;20426;-84
2023/06/17 13:54:18;;;;;;;4.40;4.00;;;;;;;;;;5033967;28;20438;-82
2023/06/17 13:56:44;;;;;;;4.40;4.00;;;;;;;;;;5033768;28;20384;-83
2023/06/17 13:59:10;;;;;;;4.18;3.88;;;;;;;;;;5033864;28;20379;-83
2023/06/17 14:01:36;;;;;;;5.75;4.20;;;;;;;;;;5033911;28;20844;-83
2023/06/17 14:04:02;;;;;;;5.00;4.60;;;;;;;;;;5033691;28;20413;-83
2023/06/17 14:06:31;;;;;;;5.18;4.40;;;;;;;;;;5033757;28;20395;-83
2023/06/17 14:08:57;;;;;;;4.27;3.97;;;;;;;;;;5033381;28;20768;-83
2023/06/17 14:11:23;;;;;;;4.70;4.07;;;;;;;;;;5033343;28;20379;-83
2023/06/17 14:13:49;;;;;;;5.77;4.47;;;;;;;;;;5032155;28;20402;-84
2023/06/17 14:16:15;;;;;;;5.53;4.37;;;;;;;;;;5033575;28;20375;-83
2023/06/17 14:18:41;;;;;;;4.70;4.30;;;;;;;;;;5033360;28;20386;-83
2023/06/17 14:24:09;;;;;;;5.53;4.93;;;;;;;;;;5033380;28;20399;-83
2023/06/17 14:26:36;;;;;;;5.28;4.35;;;;;;;;;;5033400;28;20433;-83
2023/06/17 14:29:03;;;;;;;4.63;4.22;;;;;;;;;;5031790;28;20390;-84
2023/06/17 14:31:29;;;;;;;5.97;4.45;;;;;;;;;;5032922;28;20411;-84
2023/06/17 14:33:55;;;;;;;5.13;4.10;;;;;;;;;;5036514;28;20504;-84
2023/06/17 14:36:22;;;;;;;4.50;4.10;;;;;;;;;;5049206;28;20390;-83
2023/06/17 14:38:49;;;;;;;4.75;4.35;;;;;;;;;;5036714;28;20382;-84
2023/06/17 14:41:15;;;;;;;4.77;4.37;;;;;;;;;;5048792;28;20404;-84
2023/06/17 14:43:41;;;;;;;4.77;4.30;;;;;;;;;;5041289;28;20757;-84